createdAt,value
2019-04-11T00:00:57.676Z,99.90
2019-04-11T00:03:27.385Z,99.90
2019-04-11T00:05:57.136Z,99.90
2019-04-11T00:08:26.701Z,99.90
2019-04-11T00:10:56.234Z,99.90
2019-04-11T00:13:45.207Z,99.90
2019-04-11T00:16:15.220Z,99.90
2019-04-11T00:18:49.145Z,99.90
2019-04-11T00:21:18.788Z,99.90
2019-04-11T00:23:48.531Z,99.90
2019-04-11T00:26:18.034Z,99.90
2019-04-11T00:29:07.007Z,99.90
2019-04-11T00:31:36.876Z,99.90
2019-04-11T00:34:06.831Z,99.90
2019-04-11T00:36:36.808Z,99.90
2019-04-11T00:39:11.034Z,99.90
2019-04-11T00:42:00.022Z,99.90
2019-04-11T00:44:30.546Z,99.90
2019-04-11T00:47:00.540Z,99.90
2019-04-11T00:49:30.380Z,99.90
2019-04-11T00:52:02.671Z,99.90
2019-04-11T00:54:33.148Z,99.90
2019-04-11T00:57:02.761Z,99.90
2019-04-11T00:59:32.293Z,99.90
2019-04-11T01:02:02.087Z,99.90
2019-04-11T01:04:32.766Z,99.90
2019-04-11T01:07:02.776Z,99.90
2019-04-11T01:09:32.661Z,99.90
2019-04-11T01:12:02.679Z,99.90
2019-04-11T01:14:32.306Z,99.90
2019-04-11T01:17:21.331Z,99.90
2019-04-11T01:19:51.152Z,99.90
2019-04-11T01:22:20.748Z,99.90
2019-04-11T01:24:50.374Z,99.90
2019-04-11T01:27:19.916Z,99.90
2019-04-11T01:29:49.816Z,99.90
2019-04-11T01:32:20.208Z,99.90
2019-04-11T01:34:50.856Z,99.90
2019-04-11T01:37:21.741Z,99.90
2019-04-11T01:39:53.696Z,99.90
2019-04-11T01:42:23.317Z,99.90
2019-04-11T01:44:53.137Z,99.90
2019-04-11T01:47:24.450Z,99.90
2019-04-11T01:49:54.564Z,99.90
2019-04-11T01:52:24.529Z,99.90
2019-04-11T01:54:54.208Z,99.90
2019-04-11T01:57:23.701Z,99.90
2019-04-11T01:59:55.569Z,99.90
2019-04-11T02:02:26.786Z,99.90
2019-04-11T02:04:58.708Z,99.90
2019-04-11T02:07:28.905Z,99.90
2019-04-11T02:10:10.683Z,99.90
2019-04-11T02:12:40.138Z,99.90
2019-04-11T02:15:10.594Z,99.90
2019-04-11T02:17:41.100Z,99.90
2019-04-11T02:20:12.543Z,99.90
2019-04-11T02:22:43.710Z,99.90
2019-04-11T02:25:15.075Z,99.90
2019-04-11T02:27:44.583Z,99.90
2019-04-11T02:30:16.764Z,99.90
2019-04-11T02:32:47.895Z,99.90
2019-04-11T02:35:17.658Z,99.90
2019-04-11T02:37:50.459Z,99.90
2019-04-11T02:40:22.929Z,99.90
2019-04-11T02:42:52.632Z,99.90
2019-04-11T02:45:36.265Z,99.90
2019-04-11T02:47:56.422Z,99.90
2019-04-11T02:50:29.943Z,99.90
2019-04-11T02:53:00.941Z,99.90
2019-04-11T02:55:31.682Z,99.90
2019-04-11T02:58:03.333Z,99.90
2019-04-11T03:00:35.465Z,99.90
2019-04-11T03:03:05.680Z,99.90
2019-04-11T03:05:37.565Z,99.90
2019-04-11T03:08:16.506Z,99.90
2019-04-11T03:10:57.710Z,99.90
2019-04-11T03:13:29.291Z,99.90
2019-04-11T03:16:33.287Z,99.90
2019-04-11T03:19:05.575Z,99.90
2019-04-11T03:21:23.550Z,99.90
2019-04-11T03:23:52.299Z,99.90
2019-04-11T03:26:22.564Z,99.90
2019-04-11T03:28:56.257Z,99.90
2019-04-11T03:32:05.833Z,99.90
2019-04-11T03:34:38.454Z,99.90
2019-04-11T03:39:18.217Z,99.90
2019-04-11T03:41:45.449Z,99.90
2019-04-11T03:44:11.992Z,99.90
2019-04-11T03:46:51.091Z,99.90
2019-04-11T03:49:19.268Z,99.90
2019-04-11T03:51:37.016Z,99.90
2019-04-11T03:54:26.986Z,99.90
2019-04-11T03:56:59.177Z,99.90
2019-04-11T03:59:31.223Z,99.90
2019-04-11T04:02:03.309Z,99.90
2019-04-11T04:04:35.100Z,99.90
2019-04-11T04:07:06.786Z,99.90
2019-04-11T04:09:37.371Z,99.90
2019-04-11T04:12:09.483Z,99.90
2019-04-11T04:14:42.868Z,99.90
2019-04-11T04:17:35.889Z,99.90
2019-04-11T04:20:08.781Z,99.90
2019-04-11T04:22:42.086Z,99.90
2019-04-11T04:25:12.527Z,99.90
2019-04-11T04:27:42.918Z,99.90
2019-04-11T04:30:15.069Z,99.90
2019-04-11T04:32:45.191Z,99.90
2019-04-11T04:35:19.010Z,99.90
2019-04-11T04:37:47.899Z,99.90
2019-04-11T04:40:50.996Z,99.90
2019-04-11T04:43:11.932Z,99.90
2019-04-11T04:45:57.914Z,99.90
2019-04-11T04:48:16.652Z,99.90
2019-04-11T04:50:44.870Z,99.90
2019-04-11T04:53:16.159Z,99.90
2019-04-11T04:55:47.686Z,99.90
2019-04-11T04:58:18.025Z,99.90
2019-04-11T05:00:51.128Z,99.90
2019-04-11T05:03:20.148Z,99.90
2019-04-11T05:05:50.996Z,99.90
2019-04-11T05:08:22.732Z,99.90
2019-04-11T05:10:53.549Z,99.90
2019-04-11T05:13:46.317Z,99.90
2019-04-11T05:16:17.620Z,99.90
2019-04-11T05:18:45.001Z,99.90
2019-04-11T05:21:14.497Z,99.90
2019-04-11T05:23:44.031Z,99.90
2019-04-11T05:26:33.348Z,99.90
2019-04-11T05:29:02.896Z,99.90
2019-04-11T05:31:32.377Z,99.90
2019-04-11T05:34:02.036Z,99.90
2019-04-11T05:36:32.346Z,99.90
2019-04-11T05:39:02.365Z,99.90
2019-04-11T05:41:31.999Z,99.90
2019-04-11T05:44:03.481Z,99.90
2019-04-11T05:46:45.450Z,99.90
2019-04-11T05:49:05.649Z,99.90
2019-04-11T05:51:40.921Z,99.90
2019-04-11T05:54:08.835Z,99.90
2019-04-11T05:56:38.486Z,99.90
2019-04-11T05:59:09.675Z,99.90
2019-04-11T06:01:46.844Z,99.90
2019-04-11T06:04:20.965Z,99.90
2019-04-11T06:06:50.717Z,99.90
2019-04-11T06:09:22.771Z,99.90
2019-04-11T06:11:57.228Z,99.90
2019-04-11T06:14:27.246Z,99.90
2019-04-11T06:16:59.169Z,99.90
2019-04-11T06:19:30.668Z,99.90
2019-04-11T06:22:01.836Z,99.90
2019-04-11T06:24:52.346Z,99.90
2019-04-11T06:27:24.199Z,99.90
2019-04-11T06:29:55.437Z,99.90
2019-04-11T06:32:27.768Z,99.90
2019-04-11T06:34:59.725Z,99.90
2019-04-11T06:40:20.994Z,99.90
2019-04-11T06:42:52.094Z,99.90
2019-04-11T06:45:23.786Z,99.90
2019-04-11T06:47:55.039Z,99.90
2019-04-11T06:50:45.438Z,99.90
2019-04-11T06:53:36.476Z,99.90
2019-04-11T06:56:08.332Z,99.90
2019-04-11T06:58:39.550Z,99.90
2019-04-11T07:01:11.888Z,99.90
2019-04-11T07:03:43.346Z,99.90
2019-04-11T07:06:15.397Z,99.90
2019-04-11T07:08:46.945Z,99.90
2019-04-11T07:11:18.122Z,99.90
2019-04-11T07:13:49.777Z,99.90
2019-04-11T07:16:19.975Z,99.90
2019-04-11T07:18:52.738Z,99.90
2019-04-11T07:21:23.910Z,99.90
2019-04-11T07:23:55.552Z,97.30
2019-04-11T07:26:27.378Z,90.40
2019-04-11T07:28:58.659Z,92.30
2019-04-11T07:31:30.102Z,99.90
2019-04-11T07:34:02.478Z,98.60
2019-04-11T07:36:33.945Z,92.80
2019-04-11T07:39:09.848Z,90.30
2019-04-11T07:41:43.022Z,88.00
2019-04-11T07:44:15.443Z,70.80
2019-04-11T07:46:47.300Z,79.10
2019-04-11T07:49:18.496Z,76.20
2019-04-11T07:51:50.678Z,81.30
2019-04-11T07:54:25.898Z,90.90
2019-04-11T07:56:57.058Z,80.30
2019-04-11T07:59:29.451Z,78.20
2019-04-11T08:02:01.566Z,79.80
2019-04-11T08:04:32.632Z,73.80
2019-04-11T08:07:04.432Z,68.30
2019-04-11T08:09:35.852Z,66.20
2019-04-11T08:12:15.026Z,71.80
2019-04-11T08:14:46.291Z,69.80
2019-04-11T08:17:29.000Z,68.70
2019-04-11T08:19:51.146Z,61.30
2019-04-11T08:22:23.136Z,66.20
2019-04-11T08:24:54.361Z,56.30
2019-04-11T08:27:25.476Z,62.00
2019-04-11T08:29:56.619Z,58.70
2019-04-11T08:32:30.574Z,58.50
2019-04-11T08:35:02.005Z,55.90
2019-04-11T08:37:33.768Z,67.50
2019-04-11T08:40:05.890Z,62.30
2019-04-11T08:42:37.801Z,64.90
2019-04-11T08:45:29.802Z,63.40
2019-04-11T08:48:01.033Z,63.00
2019-04-11T08:50:32.399Z,64.50
2019-04-11T08:53:04.571Z,60.30
2019-04-11T08:55:45.575Z,66.80
2019-04-11T08:58:14.691Z,64.60
2019-04-11T09:00:46.986Z,58.80
2019-04-11T09:03:18.080Z,61.80
2019-04-11T09:05:49.350Z,58.80
2019-04-11T09:08:20.601Z,55.50
2019-04-11T09:10:52.588Z,54.40
2019-04-11T09:13:24.964Z,57.90
2019-04-11T09:15:59.410Z,61.90
2019-04-11T09:18:30.622Z,62.10
2019-04-11T09:21:02.352Z,63.30
2019-04-11T09:23:32.010Z,63.30
2019-04-11T09:26:03.621Z,62.80
2019-04-11T09:28:35.620Z,63.30
2019-04-11T09:31:09.249Z,61.00
2019-04-11T09:33:39.821Z,60.50
2019-04-11T09:36:11.384Z,62.10
2019-04-11T09:38:42.488Z,62.30
2019-04-11T09:41:14.399Z,57.70
2019-04-11T09:43:44.777Z,59.30
2019-04-11T09:46:16.486Z,52.10
2019-04-11T09:48:48.380Z,51.80
2019-04-11T09:51:19.608Z,51.30
2019-04-11T09:53:50.851Z,47.60
2019-04-11T09:56:22.831Z,49.30
2019-04-11T09:58:54.014Z,45.50
2019-04-11T10:01:25.112Z,49.50
2019-04-11T10:03:54.700Z,46.70
2019-04-11T10:06:25.854Z,47.20
2019-04-11T10:08:57.621Z,51.00
2019-04-11T10:11:48.529Z,49.40
2019-04-11T10:14:19.305Z,48.20
2019-04-11T10:16:50.700Z,46.60
2019-04-11T10:19:22.092Z,47.20
2019-04-11T10:21:54.365Z,46.00
2019-04-11T10:24:26.384Z,41.00
2019-04-11T10:26:58.482Z,40.40
2019-04-11T10:32:39.317Z,44.20
2019-04-11T10:35:10.845Z,46.10
2019-04-11T10:37:42.249Z,47.40
2019-04-11T10:40:13.885Z,45.40
2019-04-11T10:42:44.420Z,42.70
2019-04-11T10:45:16.266Z,42.10
2019-04-11T10:47:47.205Z,46.10
2019-04-11T10:50:37.776Z,47.00
2019-04-11T10:53:27.007Z,46.00
2019-04-11T10:55:58.171Z,43.60
2019-04-11T10:58:29.273Z,42.00
2019-04-11T11:01:00.559Z,41.00
2019-04-11T11:03:33.997Z,41.90
2019-04-11T11:06:05.481Z,40.70
2019-04-11T11:08:37.623Z,41.20
2019-04-11T11:11:11.685Z,40.60
2019-04-11T11:13:42.406Z,44.10
2019-04-11T11:16:12.290Z,41.60
2019-04-11T11:19:15.578Z,43.50
2019-04-11T11:21:15.513Z,40.10
2019-04-11T11:23:49.128Z,38.20
2019-04-11T11:26:22.612Z,38.60
2019-04-11T11:28:52.419Z,40.30
2019-04-11T11:31:24.409Z,40.60
2019-04-11T11:33:56.367Z,40.10
2019-04-11T11:36:32.088Z,41.30
2019-04-11T11:41:38.548Z,42.20
2019-04-11T11:44:09.866Z,40.70
2019-04-11T11:46:41.087Z,40.40
2019-04-11T11:49:43.826Z,40.50
2019-04-11T11:52:22.809Z,37.20
2019-04-11T11:54:53.565Z,41.00
2019-04-11T11:57:24.803Z,39.40
2019-04-11T11:59:56.577Z,41.70
2019-04-11T12:02:28.558Z,42.40
2019-04-11T12:05:00.275Z,42.10
2019-04-11T12:07:36.997Z,40.70
2019-04-11T12:10:04.470Z,41.30
2019-04-11T12:12:35.939Z,42.30
2019-04-11T12:15:08.213Z,41.10
2019-04-11T12:17:40.373Z,39.80
2019-04-11T12:20:14.949Z,40.00
2019-04-11T12:22:44.820Z,39.70
2019-04-11T12:25:16.593Z,42.00
2019-04-11T12:27:48.051Z,38.90
2019-04-11T12:30:23.436Z,37.80
2019-04-11T12:32:52.903Z,37.80
2019-04-11T12:38:11.178Z,36.40
2019-04-11T12:41:01.583Z,37.80
2019-04-11T12:43:32.694Z,37.90
2019-04-11T12:46:03.795Z,34.70
2019-04-11T12:48:34.895Z,36.80
2019-04-11T12:51:06.103Z,38.70
2019-04-11T12:53:35.558Z,34.40
2019-04-11T12:56:06.813Z,34.30
2019-04-11T12:58:38.225Z,36.30
2019-04-11T13:01:09.323Z,36.30
2019-04-11T13:03:40.582Z,37.30
2019-04-11T13:06:11.895Z,37.40
2019-04-11T13:11:29.567Z,35.60
2019-04-11T13:14:00.646Z,38.10
2019-04-11T13:16:30.130Z,34.80
2019-04-11T13:19:01.255Z,36.70
2019-04-11T13:21:32.503Z,34.40
2019-04-11T13:24:03.602Z,36.00
2019-04-11T13:26:34.745Z,36.50
2019-04-11T13:29:25.135Z,35.50
2019-04-11T13:32:15.671Z,31.90
2019-04-11T13:34:46.780Z,33.10
2019-04-11T13:37:17.891Z,35.90
2019-04-11T13:39:49.031Z,33.70
2019-04-11T13:42:20.148Z,34.80
2019-04-11T13:44:49.630Z,35.80
2019-04-11T13:47:20.946Z,32.80
2019-04-11T13:49:52.001Z,35.30
2019-04-11T13:52:42.429Z,34.40
2019-04-11T13:55:14.671Z,34.50
2019-04-11T14:00:36.824Z,33.70
2019-04-11T14:03:08.131Z,35.10
2019-04-11T14:05:39.242Z,35.40
2019-04-11T14:10:47.439Z,34.30
2019-04-11T14:13:17.006Z,34.30
2019-04-11T14:15:48.188Z,35.80
2019-04-11T14:18:19.318Z,34.90
2019-04-11T14:20:50.495Z,32.90
2019-04-11T14:26:08.802Z,33.70
2019-04-11T14:28:39.870Z,35.50
2019-04-11T14:31:11.128Z,33.50
2019-04-11T14:33:42.218Z,35.40
2019-04-11T14:36:13.301Z,34.00
2019-04-11T14:38:48.016Z,35.10
2019-04-11T14:41:17.323Z,33.80
2019-04-11T14:43:48.394Z,36.30
2019-04-11T14:46:19.506Z,35.10
2019-04-11T14:48:50.654Z,36.10
2019-04-11T14:51:23.812Z,36.40
2019-04-11T14:53:54.585Z,38.70
2019-04-11T14:56:27.159Z,38.60
2019-04-11T14:58:58.377Z,36.10
2019-04-11T15:01:29.316Z,37.60
2019-04-11T15:04:00.447Z,37.30
2019-04-11T15:06:32.498Z,38.40
2019-04-11T15:09:03.583Z,40.00
2019-04-11T15:11:35.091Z,39.10
2019-04-11T15:14:25.510Z,37.50
2019-04-11T15:16:56.804Z,38.40
2019-04-11T15:19:26.754Z,38.00
2019-04-11T15:21:57.854Z,39.30
2019-04-11T15:24:48.314Z,38.80
2019-04-11T15:27:19.561Z,40.40
2019-04-11T15:29:49.087Z,39.50
2019-04-11T15:32:39.515Z,39.10
2019-04-11T15:35:09.397Z,40.30
2019-04-11T15:37:40.473Z,39.60
2019-04-11T15:40:11.967Z,40.00
2019-04-11T15:42:43.038Z,40.20
2019-04-11T15:45:14.791Z,39.00
2019-04-11T15:47:46.752Z,39.70
2019-04-11T15:50:18.863Z,40.20
2019-04-11T15:52:49.939Z,40.70
2019-04-11T15:55:21.144Z,40.10
2019-04-11T15:57:52.263Z,40.40
2019-04-11T16:00:43.924Z,41.30
2019-04-11T16:03:13.969Z,40.50
2019-04-11T16:08:49.435Z,41.30
2019-04-11T16:11:20.551Z,41.60
2019-04-11T16:13:51.605Z,41.90
2019-04-11T16:16:22.984Z,43.10
2019-04-11T16:19:14.789Z,43.40
2019-04-11T16:21:46.187Z,42.30
2019-04-11T16:24:17.284Z,42.60
2019-04-11T16:26:48.353Z,43.20
2019-04-11T16:29:19.654Z,42.60
2019-04-11T16:31:49.097Z,43.70
2019-04-11T16:34:20.230Z,42.60
2019-04-11T16:36:51.202Z,42.90
2019-04-11T16:39:22.293Z,43.60
2019-04-11T16:41:53.869Z,43.50
2019-04-11T16:44:26.422Z,44.40
2019-04-11T16:46:57.548Z,44.70
2019-04-11T16:49:46.531Z,44.30
2019-04-11T16:52:16.043Z,43.50
2019-04-11T16:54:45.509Z,44.40
2019-04-11T16:57:15.051Z,44.30
2019-04-11T16:59:44.492Z,45.20
2019-04-11T17:02:13.987Z,46.10
2019-04-11T17:04:43.490Z,45.50
2019-04-11T17:07:14.573Z,45.50
2019-04-11T17:09:45.641Z,45.30
2019-04-11T17:12:15.196Z,45.70
2019-04-11T17:15:05.425Z,45.40
2019-04-11T17:17:34.916Z,45.40
2019-04-11T17:20:06.782Z,45.40
2019-04-11T17:22:36.402Z,44.80
2019-04-11T17:25:06.933Z,45.00
2019-04-11T17:27:36.394Z,44.90
2019-04-11T17:30:08.543Z,44.90
2019-04-11T17:32:38.220Z,45.80
2019-04-11T17:35:08.069Z,44.50
2019-04-11T17:37:37.535Z,45.20
2019-04-11T17:40:07.963Z,44.90
2019-04-11T17:42:37.410Z,45.20
2019-04-11T17:45:26.198Z,45.40
2019-04-11T17:47:57.296Z,45.90
2019-04-11T17:50:46.173Z,46.60
2019-04-11T17:53:15.630Z,46.00
2019-04-11T17:55:45.127Z,46.60
2019-04-11T17:58:14.632Z,46.40
2019-04-11T18:00:45.783Z,46.80
2019-04-11T18:03:15.333Z,47.10
2019-04-11T18:05:46.921Z,47.00
2019-04-11T18:08:19.762Z,46.50
2019-04-11T18:10:48.856Z,46.40
2019-04-11T18:13:37.652Z,47.00
2019-04-11T18:16:07.300Z,47.80
2019-04-11T18:18:36.803Z,48.40
2019-04-11T18:21:07.326Z,48.30
2019-04-11T18:23:37.590Z,48.60
2019-04-11T18:26:07.086Z,49.80
2019-04-11T18:28:55.898Z,50.50
2019-04-11T18:31:25.677Z,51.30
2019-04-11T18:33:55.445Z,51.40
2019-04-11T18:36:25.278Z,51.80
2019-04-11T18:38:54.825Z,52.90
2019-04-11T18:41:24.283Z,53.50
2019-04-11T18:43:53.821Z,54.00
2019-04-11T18:46:23.690Z,53.70
2019-04-11T18:48:54.483Z,55.10
2019-04-11T18:51:24.307Z,55.60
2019-04-11T18:53:53.764Z,59.10
2019-04-11T18:56:23.231Z,61.80
2019-04-11T18:58:52.708Z,64.40
2019-04-11T19:01:22.344Z,69.60
2019-04-11T19:03:51.809Z,74.70
2019-04-11T19:06:27.792Z,80.90
2019-04-11T19:08:52.596Z,80.40
2019-04-11T19:11:22.319Z,89.40
2019-04-11T19:13:51.905Z,91.00
2019-04-11T19:16:21.392Z,89.90
2019-04-11T19:18:50.864Z,92.90
2019-04-11T19:21:21.271Z,95.20
2019-04-11T19:23:50.768Z,96.00
2019-04-11T19:26:22.773Z,97.40
2019-04-11T19:28:54.899Z,97.00
2019-04-11T19:31:27.384Z,97.40
2019-04-11T19:33:55.019Z,96.10
2019-04-11T19:36:24.620Z,96.20
2019-04-11T19:38:54.112Z,96.90
2019-04-11T19:41:23.567Z,95.30
2019-04-11T19:43:53.076Z,96.40
2019-04-11T19:46:22.556Z,97.20
2019-04-11T19:48:55.374Z,98.10
2019-04-11T19:51:23.228Z,95.00
2019-04-11T19:53:52.709Z,93.20
2019-04-11T19:56:23.771Z,94.40
2019-04-11T19:58:53.261Z,97.80
2019-04-11T20:01:23.512Z,96.10
2019-04-11T20:03:54.040Z,97.10
2019-04-11T20:06:24.249Z,99.90
2019-04-11T20:08:53.696Z,94.90
2019-04-11T20:11:23.262Z,97.80
2019-04-11T20:13:52.739Z,97.90
2019-04-11T20:16:22.289Z,99.90
2019-04-11T20:18:56.531Z,99.90
2019-04-11T20:21:24.557Z,99.90
2019-04-11T20:24:14.562Z,99.90
2019-04-11T20:26:44.646Z,99.90
2019-04-11T20:29:14.128Z,99.90
2019-04-11T20:31:43.615Z,99.90
2019-04-11T20:34:13.280Z,99.90
2019-04-11T20:36:55.362Z,99.90
2019-04-11T20:39:24.841Z,99.90
2019-04-11T20:41:55.802Z,99.90
2019-04-11T20:44:27.454Z,99.90
2019-04-11T20:47:00.093Z,99.90
2019-04-11T20:49:27.748Z,99.90
2019-04-11T20:51:57.204Z,99.90
2019-04-11T20:54:26.711Z,99.90
2019-04-11T20:56:56.177Z,99.90
2019-04-11T20:59:34.617Z,99.90
2019-04-11T21:02:16.177Z,99.90
2019-04-11T21:04:45.638Z,99.90
2019-04-11T21:07:34.438Z,99.90
2019-04-11T21:10:06.032Z,99.90
2019-04-11T21:12:37.368Z,99.90
2019-04-11T21:15:08.546Z,99.90
2019-04-11T21:17:57.342Z,99.90
2019-04-11T21:20:26.837Z,99.90
2019-04-11T21:22:56.283Z,99.90
2019-04-11T21:25:26.106Z,99.90
2019-04-11T21:27:59.118Z,99.90
2019-04-11T21:30:30.340Z,99.90
2019-04-11T21:33:01.174Z,99.90
2019-04-11T21:35:44.143Z,99.90
2019-04-11T21:38:13.617Z,99.90
2019-04-11T21:40:43.090Z,99.90
2019-04-11T21:43:12.690Z,99.90
2019-04-11T21:45:42.236Z,99.90
2019-04-11T21:48:31.057Z,99.90
2019-04-11T21:51:00.537Z,99.90
2019-04-11T21:53:36.566Z,99.90
2019-04-11T21:56:01.258Z,99.90
2019-04-11T21:58:30.715Z,99.90
2019-04-11T22:01:04.989Z,99.90
2019-04-11T22:03:34.482Z,99.90
2019-04-11T22:06:04.141Z,99.90
2019-04-11T22:08:34.370Z,99.90
2019-04-11T22:11:05.000Z,99.90
2019-04-11T22:13:34.481Z,99.90
2019-04-11T22:16:04.210Z,99.90
2019-04-11T22:18:33.817Z,99.90
2019-04-11T22:21:04.977Z,99.90
2019-04-11T22:23:34.431Z,99.90
2019-04-11T22:26:04.381Z,99.90
2019-04-11T22:28:33.828Z,99.90
2019-04-11T22:31:03.396Z,99.90
2019-04-11T22:33:34.598Z,99.90
2019-04-11T22:36:05.082Z,99.90
2019-04-11T22:38:34.568Z,99.90
2019-04-11T22:41:04.139Z,99.90
2019-04-11T22:43:33.626Z,99.90
2019-04-11T22:46:03.138Z,99.90
2019-04-11T22:48:32.649Z,99.90
2019-04-11T22:51:02.142Z,99.90
2019-04-11T22:53:31.616Z,99.90
2019-04-11T22:56:01.124Z,99.90
2019-04-11T22:58:30.590Z,99.90
2019-04-11T23:01:00.049Z,99.90
2019-04-11T23:03:31.193Z,99.90
2019-04-11T23:06:20.027Z,99.90
2019-04-11T23:08:49.609Z,99.90
2019-04-11T23:11:19.047Z,99.90
2019-04-11T23:13:48.879Z,99.90
2019-04-11T23:16:18.395Z,99.90
2019-04-11T23:18:48.029Z,99.90
2019-04-11T23:21:17.505Z,99.90
2019-04-11T23:23:46.967Z,99.90
2019-04-11T23:26:16.450Z,99.90
2019-04-11T23:28:46.854Z,99.90
2019-04-11T23:31:19.797Z,99.90
2019-04-11T23:33:51.770Z,99.90
2019-04-11T23:36:21.181Z,99.90
2019-04-11T23:38:52.595Z,99.90
2019-04-11T23:41:22.371Z,99.90
2019-04-11T23:43:51.850Z,99.90
2019-04-11T23:46:40.683Z,99.90
2019-04-11T23:49:10.169Z,99.90
2019-04-11T23:51:39.658Z,99.90
2019-04-11T23:54:09.300Z,99.90
2019-04-11T23:56:38.791Z,99.90
2019-04-11T23:59:08.273Z,99.90
